Time;durP1;ratioP1;P1;durP2;ratioP2;P2;SDS_P1;SDS_P2;PMS_P1;PMS_P2;Temp;Humidity;BMP_temperature;BMP_pressure;BME280_temperature;BME280_humidity;BME280_pressure;Samples;Min_cycle;Max_cycle;Signal;HPM_P1;HPM_P2
2023/01/29 00:00:50;;;;;;;4.73;1.80;;;0.00;99.90;;;;;;4856811;29;20045;-89
2023/01/29 00:03:24;;;;;;;3.37;1.50;;;0.30;99.90;;;;;;4845387;29;20055;-88
2023/01/29 00:05:56;;;;;;;6.13;2.03;;;0.10;99.90;;;;;;4845473;29;20038;-88
2023/01/29 00:08:42;;;;;;;4.32;1.63;;;0.00;99.90;;;;;;4840463;29;20063;-88
2023/01/29 00:11:15;;;;;;;4.07;1.60;;;0.30;99.90;;;;;;4842536;29;20427;-88
2023/01/29 00:13:56;;;;;;;4.37;1.77;;;1.50;99.90;;;;;;4828820;29;20039;-89
2023/01/29 00:16:26;;;;;;;5.30;1.67;;;0.40;99.90;;;;;;4836233;29;20048;-88
2023/01/29 00:18:56;;;;;;;7.60;2.13;;;0.50;99.90;;;;;;4838110;29;20038;-86
2023/01/29 00:21:55;;;;;;;5.13;1.37;;;-0.60;99.90;;;;;;4833403;29;20038;-88
2023/01/29 00:24:21;;;;;;;4.73;1.83;;;0.20;99.90;;;;;;4838136;29;20043;-88
2023/01/29 00:26:52;;;;;;;3.23;1.30;;;1.40;99.90;;;;;;4832282;29;20039;-88
2023/01/29 00:29:28;;;;;;;4.20;1.77;;;1.20;99.90;;;;;;4825936;29;20034;-89
2023/01/29 00:32:01;;;;;;;6.23;1.70;;;0.30;99.90;;;;;;4819848;29;20039;-89
2023/01/29 00:34:37;;;;;;;4.37;1.60;;;1.10;99.90;;;;;;4822352;29;20094;-88
2023/01/29 00:37:11;;;;;;;4.73;1.67;;;0.30;99.90;;;;;;4831257;29;20026;-88
2023/01/29 00:39:39;;;;;;;5.30;2.00;;;0.30;99.90;;;;;;4826600;29;20030;-89
2023/01/29 00:44:56;;;;;;;4.80;1.80;;;2.40;99.90;;;;;;4833087;29;20032;-89
2023/01/29 00:47:34;;;;;;;5.13;1.80;;;-0.40;99.90;;;;;;4828700;29;20133;-89
2023/01/29 00:52:56;;;;;;;4.37;1.93;;;0.30;99.90;;;;;;4827449;29;20063;-88
2023/01/29 00:55:27;;;;;;;6.30;1.90;;;0.60;99.90;;;;;;4832281;29;20036;-89
2023/01/29 00:57:53;;;;;;;5.27;1.83;;;-0.10;99.90;;;;;;4829917;29;20029;-89
2023/01/29 01:00:23;;;;;;;4.30;1.67;;;0.10;99.90;;;;;;4830496;29;20026;-89
2023/01/29 01:03:05;;;;;;;4.77;2.13;;;-0.80;99.90;;;;;;4831075;29;20030;-89
2023/01/29 01:05:33;;;;;;;4.30;1.45;;;-0.20;99.90;;;;;;4833012;29;20050;-89
2023/01/29 01:08:01;;;;;;;5.97;1.63;;;-0.10;99.90;;;;;;4831035;29;20127;-88
2023/01/29 01:10:32;;;;;;;7.40;1.90;;;0.20;99.90;;;;;;4831368;29;20018;-88
2023/01/29 01:13:03;;;;;;;4.73;1.67;;;0.50;99.90;;;;;;4823301;29;20045;-88
2023/01/29 01:15:39;;;;;;;5.20;1.63;;;0.20;99.90;;;;;;4830963;29;20023;-87
2023/01/29 01:18:14;;;;;;;4.23;1.33;;;0.60;99.90;;;;;;4831670;29;20090;-88
2023/01/29 01:20:44;;;;;;;6.00;1.93;;;0.00;99.90;;;;;;4831307;29;20054;-88
2023/01/29 01:23:20;;;;;;;6.07;2.10;;;0.00;99.90;;;;;;4829811;29;20104;-89
2023/01/29 01:25:45;;;;;;;4.87;1.77;;;-0.10;99.90;;;;;;4829964;29;20118;-89
2023/01/29 01:28:12;;;;;;;5.57;1.73;;;1.10;99.90;;;;;;4830788;29;20058;-89
2023/01/29 01:30:37;;;;;;;4.20;1.47;;;0.60;99.90;;;;;;4829819;29;20079;-88
2023/01/29 01:33:03;;;;;;;3.70;1.30;;;-0.20;99.90;;;;;;4830876;29;20102;-89
2023/01/29 01:35:29;;;;;;;4.80;1.90;;;0.20;99.90;;;;;;4831067;29;20050;-88
2023/01/29 01:37:59;;;;;;;4.70;1.73;;;1.00;99.90;;;;;;4826402;29;20030;-89
2023/01/29 01:40:25;;;;;;;3.97;1.63;;;0.20;99.90;;;;;;4829971;29;20449;-87
2023/01/29 01:42:56;;;;;;;4.57;1.60;;;-0.20;99.90;;;;;;4830471;29;20083;-88
2023/01/29 01:45:34;;;;;;;5.23;1.70;;;-0.40;99.90;;;;;;4833171;29;20035;-89
2023/01/29 01:48:27;;;;;;;5.07;1.77;;;-0.10;99.90;;;;;;4822818;29;20034;-88
2023/01/29 01:51:05;;;;;;;4.30;1.80;;;1.40;99.90;;;;;;4833425;29;20034;-89
2023/01/29 01:53:45;;;;;;;4.27;1.63;;;0.00;99.90;;;;;;4828502;29;20030;-87
2023/01/29 01:56:25;;;;;;;5.60;1.80;;;-0.10;99.90;;;;;;4833270;29;20041;-89
2023/01/29 01:58:55;;;;;;;5.17;1.50;;;-0.10;99.90;;;;;;4831505;29;20022;-89
2023/01/29 02:01:48;;;;;;;4.43;1.40;;;0.10;99.90;;;;;;4824099;29;20038;-90
2023/01/29 02:10:04;;;;;;;5.30;1.90;;;-0.30;99.90;;;;;;4828483;29;20049;-89
2023/01/29 02:12:31;;;;;;;4.47;1.57;;;0.10;99.90;;;;;;4814300;29;20044;-89
2023/01/29 02:14:59;;;;;;;5.00;1.93;;;-0.20;99.90;;;;;;4825613;29;20026;-89
2023/01/29 02:17:25;;;;;;;5.97;1.63;;;-0.30;99.90;;;;;;4827670;29;20033;-89
2023/01/29 02:20:28;;;;;;;5.07;1.50;;;-0.10;99.90;;;;;;4830019;29;20045;-89
2023/01/29 02:22:58;;;;;;;5.32;1.65;;;-0.20;99.90;;;;;;4828027;29;20126;-89
2023/01/29 02:25:30;;;;;;;4.03;1.60;;;-0.20;99.90;;;;;;4831449;29;20653;-89
2023/01/29 02:27:56;;;;;;;4.53;1.90;;;-0.20;99.90;;;;;;4834571;29;20121;-89
2023/01/29 02:30:31;;;;;;;5.03;1.97;;;0.60;99.90;;;;;;4831564;29;20066;-89
2023/01/29 02:33:23;;;;;;;3.90;1.27;;;-0.80;99.90;;;;;;4829954;29;20381;-89
2023/01/29 02:36:05;;;;;;;5.57;1.50;;;-0.30;99.90;;;;;;4825512;29;20590;-89
2023/01/29 02:38:52;;;;;;;3.17;1.20;;;-0.30;99.90;;;;;;4830227;29;20030;-89
2023/01/29 02:41:28;;;;;;;4.67;1.70;;;-0.20;99.90;;;;;;4841396;29;20043;-90
2023/01/29 02:44:16;;;;;;;3.37;1.13;;;-0.10;99.90;;;;;;4833507;29;20058;-89
2023/01/29 02:47:06;;;;;;;4.93;1.90;;;-0.10;99.90;;;;;;4825433;29;20038;-89
2023/01/29 02:49:43;;;;;;;6.57;2.13;;;-0.30;99.90;;;;;;4827678;29;20407;-88
2023/01/29 02:52:25;;;;;;;4.17;1.50;;;-0.20;99.90;;;;;;4828694;29;20122;-89
2023/01/29 02:55:26;;;;;;;3.97;1.48;;;-0.30;99.90;;;;;;4829562;29;20079;-89
2023/01/29 02:58:03;;;;;;;4.07;1.40;;;-0.40;99.90;;;;;;4823272;29;20045;-90
2023/01/29 03:00:35;;;;;;;4.93;1.60;;;-0.10;99.90;;;;;;4829171;29;20474;-89
2023/01/29 03:03:25;;;;;;;5.07;1.60;;;-0.10;99.90;;;;;;4823738;29;20038;-89
2023/01/29 03:06:07;;;;;;;5.83;1.60;;;-0.50;99.90;;;;;;4843295;29;20102;-89
2023/01/29 03:08:44;;;;;;;4.75;1.63;;;-0.20;99.90;;;;;;4824510;29;20117;-89
2023/01/29 03:11:16;;;;;;;4.47;1.90;;;-0.20;99.90;;;;;;4828797;29;20674;-90
2023/01/29 03:17:34;;;;;;;5.57;1.80;;;-0.40;99.90;;;;;;4826096;29;20596;-89
2023/01/29 03:20:06;;;;;;;7.60;1.33;;;-0.50;99.90;;;;;;4826411;29;20026;-89
2023/01/29 03:22:33;;;;;;;5.47;1.70;;;-0.40;99.90;;;;;;4815895;29;20499;-89
2023/01/29 03:33:52;;;;;;;4.43;1.73;;;-0.40;99.90;;;;;;4829637;29;20042;-89
2023/01/29 03:36:53;;;;;;;4.37;1.60;;;0.20;99.90;;;;;;4832057;29;20049;-90
2023/01/29 03:39:19;;;;;;;4.30;1.80;;;-0.40;99.90;;;;;;4824329;29;20049;-89
2023/01/29 03:41:54;;;;;;;4.40;1.40;;;-0.30;99.90;;;;;;4827415;29;20031;-89
2023/01/29 03:44:36;;;;;;;5.37;1.70;;;-0.30;99.90;;;;;;4828239;29;20030;-89
2023/01/29 03:47:19;;;;;;;5.43;1.60;;;-0.40;99.90;;;;;;4826207;29;20041;-90
2023/01/29 03:50:09;;;;;;;5.53;1.67;;;-0.40;99.90;;;;;;4828731;29;20096;-89
2023/01/29 03:53:05;;;;;;;5.73;1.97;;;-0.30;99.90;;;;;;4828434;29;20034;-89
2023/01/29 03:55:39;;;;;;;4.93;1.77;;;-0.30;99.90;;;;;;4826104;29;20480;-89
2023/01/29 03:58:24;;;;;;;3.77;1.50;;;-0.10;99.90;;;;;;4830850;29;20029;-88
2023/01/29 04:00:56;;;;;;;3.13;1.33;;;0.80;99.90;;;;;;4828718;29;20023;-89
2023/01/29 04:03:25;;;;;;;;;;;-0.10;99.90;;;;;;4828267;29;20038;-89
2023/01/29 04:06:22;;;;;;;5.67;1.33;;;0.20;99.90;;;;;;4826180;29;19908;-90
2023/01/29 04:08:58;;;;;;;5.67;1.33;;;-0.40;99.90;;;;;;4830409;29;20034;-89
2023/01/29 04:11:26;;;;;;;4.77;1.77;;;-0.40;99.90;;;;;;4827967;29;20049;-88
2023/01/29 04:13:52;;;;;;;6.10;1.60;;;-1.00;99.90;;;;;;4827379;29;20022;-90
2023/01/29 04:16:28;;;;;;;5.93;1.80;;;0.60;99.90;;;;;;4832064;29;20577;-89
2023/01/29 04:18:54;;;;;;;7.03;1.50;;;0.30;99.90;;;;;;4836617;29;20042;-89
2023/01/29 04:21:22;;;;;;;3.93;1.50;;;0.30;99.90;;;;;;4837125;29;20104;-88
2023/01/29 04:23:57;;;;;;;5.47;1.60;;;-1.30;99.90;;;;;;4833006;29;20030;-89
2023/01/29 04:26:29;;;;;;;5.90;1.80;;;0.90;99.90;;;;;;4833608;29;20023;-89
2023/01/29 04:29:30;;;;;;;5.00;2.17;;;-0.40;99.90;;;;;;4834727;29;20110;-90
2023/01/29 04:32:21;;;;;;;4.37;1.90;;;-0.10;99.90;;;;;;4813686;29;20143;-89
2023/01/29 04:35:11;;;;;;;6.33;1.47;;;-0.30;99.90;;;;;;4831485;29;20030;-89
2023/01/29 04:38:19;;;;;;;4.77;1.67;;;-0.30;99.90;;;;;;4834705;29;20095;-89
2023/01/29 04:41:03;;;;;;;5.77;1.47;;;-0.40;99.90;;;;;;4851428;29;20617;-89
2023/01/29 04:43:55;;;;;;;6.10;1.50;;;-0.40;99.90;;;;;;4852922;29;20058;-89
2023/01/29 04:46:26;;;;;;;4.10;1.42;;;-0.80;99.90;;;;;;4812428;29;20038;-89
2023/01/29 04:49:11;;;;;;;5.73;1.50;;;-0.70;99.90;;;;;;4831734;29;20077;-89
2023/01/29 04:51:53;;;;;;;6.80;1.57;;;0.30;99.90;;;;;;4834750;29;20026;-90
2023/01/29 04:54:30;;;;;;;4.22;1.40;;;-1.30;99.90;;;;;;4834061;29;20029;-88
2023/01/29 04:57:04;;;;;;;4.10;1.80;;;-0.50;99.90;;;;;;4833893;29;20035;-88
2023/01/29 04:59:37;;;;;;;5.27;1.80;;;-0.40;99.90;;;;;;4839225;29;20109;-88
2023/01/29 05:02:19;;;;;;;3.40;1.30;;;-0.40;99.90;;;;;;4824953;29;20035;-88
2023/01/29 05:04:54;;;;;;;4.57;1.63;;;0.20;99.90;;;;;;4828277;29;20031;-89
2023/01/29 05:07:22;;;;;;;6.80;1.67;;;-0.50;99.90;;;;;;4835810;29;20030;-88
2023/01/29 05:09:53;;;;;;;3.20;1.37;;;-0.60;99.90;;;;;;4834680;29;20113;-89
2023/01/29 05:12:21;;;;;;;6.65;1.67;;;-0.40;99.90;;;;;;4831700;29;20045;-89
2023/01/29 05:14:50;;;;;;;5.90;1.90;;;-0.50;99.90;;;;;;4833178;29;20031;-89
2023/01/29 05:17:22;;;;;;;5.53;1.57;;;-0.50;99.90;;;;;;4828242;29;20128;-89
2023/01/29 05:19:48;;;;;;;4.20;1.70;;;-0.50;99.90;;;;;;4828496;29;20033;-89
2023/01/29 05:22:16;;;;;;;5.73;1.33;;;-0.50;99.90;;;;;;4835038;29;20035;-89
2023/01/29 05:24:43;;;;;;;3.73;1.43;;;0.10;99.90;;;;;;4836041;29;20042;-89
2023/01/29 05:30:04;;;;;;;4.37;1.40;;;0.20;99.90;;;;;;4836446;29;20098;-89
2023/01/29 05:32:29;;;;;;;6.60;1.53;;;-0.50;99.90;;;;;;4834401;29;20026;-88
2023/01/29 05:35:06;;;;;;;5.97;1.80;;;-0.50;99.90;;;;;;4832667;29;20507;-88
2023/01/29 05:37:34;;;;;;;3.90;1.50;;;-0.60;99.90;;;;;;4842331;29;20022;-89
2023/01/29 05:40:00;;;;;;;6.30;2.30;;;-0.60;99.90;;;;;;4846596;29;20026;-89
2023/01/29 05:42:29;;;;;;;8.30;1.50;;;-0.50;99.90;;;;;;4850068;29;20034;-88
2023/01/29 05:44:55;;;;;;;6.20;2.30;;;0.30;99.90;;;;;;4834737;29;20038;-89
2023/01/29 05:47:21;;;;;;;3.80;1.27;;;0.20;99.90;;;;;;4836497;29;20039;-89
2023/01/29 05:49:55;;;;;;;4.67;1.30;;;-0.50;99.90;;;;;;4835427;29;20059;-89
2023/01/29 05:52:21;;;;;;;3.77;1.50;;;-0.50;99.90;;;;;;4846760;29;20034;-89
2023/01/29 05:54:47;;;;;;;5.33;1.50;;;-0.70;99.90;;;;;;4833203;29;20156;-88
2023/01/29 05:57:16;;;;;;;4.03;1.37;;;1.00;99.90;;;;;;4832868;29;20033;-89
2023/01/29 05:59:41;;;;;;;4.50;2.10;;;-0.80;99.90;;;;;;4829205;29;20719;-89
2023/01/29 06:02:07;;;;;;;4.63;1.50;;;0.20;99.90;;;;;;4827594;29;20030;-89
2023/01/29 06:04:33;;;;;;;4.47;1.33;;;-0.70;99.90;;;;;;4831887;29;20041;-89
2023/01/29 06:07:02;;;;;;;3.73;1.77;;;-0.20;99.90;;;;;;4834295;29;20031;-89
2023/01/29 06:09:28;;;;;;;6.00;1.67;;;0.20;99.90;;;;;;4826815;29;20480;-89
2023/01/29 06:12:22;;;;;;;5.47;1.80;;;-0.10;99.90;;;;;;4837200;29;20040;-89
2023/01/29 06:15:25;;;;;;;;;;;;;;;;;;;;;
2023/01/29 06:18:16;;;;;;;4.20;1.50;;;-1.00;99.90;;;;;;4838616;29;20054;-89
2023/01/29 06:20:48;;;;;;;4.63;1.77;;;-0.80;99.90;;;;;;4837169;29;20042;-89
2023/01/29 06:23:16;;;;;;;5.50;1.60;;;-0.60;99.90;;;;;;4838142;29;20056;-89
2023/01/29 06:25:50;;;;;;;4.23;1.77;;;0.20;99.90;;;;;;4833037;29;20030;-89
2023/01/29 06:28:47;;;;;;;4.50;1.30;;;-0.70;99.90;;;;;;4839358;29;20086;-89
2023/01/29 06:31:13;;;;;;;4.20;1.50;;;-0.60;99.90;;;;;;4835189;29;20045;-89
2023/01/29 06:33:54;;;;;;;4.50;1.77;;;0.40;99.90;;;;;;4830109;29;20026;-90
2023/01/29 06:36:29;;;;;;;3.57;1.33;;;-0.60;99.90;;;;;;4835443;29;20090;-89
2023/01/29 06:38:55;;;;;;;6.67;1.47;;;-0.60;99.90;;;;;;4837432;29;20035;-89
2023/01/29 06:41:44;;;;;;;6.40;2.17;;;0.40;99.90;;;;;;4836048;29;20034;-88
2023/01/29 06:44:09;;;;;;;4.73;1.80;;;-0.50;99.90;;;;;;4823657;29;20046;-89
2023/01/29 06:46:42;;;;;;;6.20;1.50;;;-0.60;99.90;;;;;;4835892;29;20034;-88
2023/01/29 06:49:07;;;;;;;4.78;1.50;;;-0.60;99.90;;;;;;4838100;29;20054;-89
2023/01/29 06:51:39;;;;;;;4.67;1.40;;;-0.20;99.90;;;;;;4829808;29;20049;-89
2023/01/29 06:54:19;;;;;;;3.55;1.38;;;-0.70;99.90;;;;;;4838161;29;20158;-87
2023/01/29 06:56:51;;;;;;;7.07;1.83;;;-0.50;99.90;;;;;;4837418;29;20040;-88
2023/01/29 06:59:19;;;;;;;5.15;2.03;;;0.20;99.90;;;;;;4835837;29;20027;-88
2023/01/29 07:01:53;;;;;;;6.27;1.50;;;-0.50;99.90;;;;;;4835164;29;20098;-88
2023/01/29 07:04:25;;;;;;;4.77;1.67;;;-0.60;99.90;;;;;;4835876;29;20038;-88
2023/01/29 07:07:01;;;;;;;6.32;1.40;;;-0.50;99.90;;;;;;4836780;29;20171;-88
2023/01/29 07:09:39;;;;;;;5.00;1.40;;;-0.70;99.90;;;;;;4835993;29;20086;-88
2023/01/29 07:12:37;;;;;;;4.57;1.80;;;-0.50;99.90;;;;;;4834958;29;20041;-87
2023/01/29 07:15:11;;;;;;;6.67;1.87;;;-0.30;99.90;;;;;;4837710;29;20014;-88
2023/01/29 07:18:04;;;;;;;6.87;1.80;;;-0.60;99.90;;;;;;4835897;29;20094;-88
2023/01/29 07:20:42;;;;;;;;;;;-0.70;99.90;;;;;;4837578;29;20042;-88
2023/01/29 07:23:25;;;;;;;;;;;;;;;;;;;;;
2023/01/29 07:26:15;;;;;;;6.03;1.38;;;0.20;99.90;;;;;;4838726;29;20058;-88
2023/01/29 07:28:47;;;;;;;7.53;1.80;;;-0.50;99.90;;;;;;4836804;29;20030;-87
2023/01/29 07:31:25;;;;;;;3.92;1.30;;;-0.50;99.90;;;;;;4836886;29;20042;-88
2023/01/29 07:33:55;;;;;;;6.87;2.20;;;-0.70;99.90;;;;;;4836330;29;20051;-88
2023/01/29 07:36:51;;;;;;;7.27;1.97;;;-0.50;99.90;;;;;;4835707;29;20030;-87
2023/01/29 07:39:39;;;;;;;5.13;2.00;;;-0.30;99.90;;;;;;4837759;29;20015;-89
2023/01/29 07:42:11;;;;;;;6.77;1.80;;;0.00;99.90;;;;;;4840023;29;20033;-87
2023/01/29 07:45:27;;;;;;;7.32;2.10;;;0.60;99.90;;;;;;4840895;29;20026;-88
2023/01/29 07:48:23;;;;;;;2.43;1.20;;;-0.20;99.90;;;;;;4841848;29;20046;-88
2023/01/29 07:51:09;;;;;;;6.77;1.80;;;-0.40;99.90;;;;;;4838875;29;20049;-88
2023/01/29 07:53:52;;;;;;;5.80;2.03;;;-0.70;99.90;;;;;;4850521;29;20037;-89
2023/01/29 07:59:09;;;;;;;5.60;2.33;;;-0.20;99.90;;;;;;4830455;29;20086;-88
2023/01/29 08:01:46;;;;;;;4.77;2.00;;;-0.30;99.90;;;;;;4838811;29;20090;-88
2023/01/29 08:04:19;;;;;;;6.10;2.20;;;-0.30;99.90;;;;;;4840979;29;20043;-88
2023/01/29 08:06:45;;;;;;;7.57;2.20;;;0.70;99.90;;;;;;4838693;29;20018;-89
2023/01/29 08:09:17;;;;;;;6.93;2.20;;;0.90;99.90;;;;;;4837402;29;20129;-89
2023/01/29 08:12:19;;;;;;;3.85;1.48;;;-0.10;99.90;;;;;;4836160;29;20030;-87
2023/01/29 08:15:17;;;;;;;4.90;1.90;;;-0.10;99.90;;;;;;4835486;29;20078;-88
2023/01/29 08:18:03;;;;;;;4.20;1.87;;;-0.10;99.90;;;;;;4839201;29;20041;-88
2023/01/29 08:20:29;;;;;;;4.70;1.93;;;0.70;99.90;;;;;;4828471;29;20064;-88
2023/01/29 08:23:04;;;;;;;4.47;1.57;;;0.30;99.90;;;;;;4834453;29;20026;-87
2023/01/29 08:25:37;;;;;;;5.50;1.80;;;0.70;99.90;;;;;;4828238;29;20034;-87
2023/01/29 08:28:03;;;;;;;5.90;2.50;;;-0.10;99.90;;;;;;4827504;29;20068;-88
2023/01/29 08:30:31;;;;;;;5.77;2.17;;;1.00;99.90;;;;;;4827618;29;20034;-87
2023/01/29 08:32:57;;;;;;;7.60;2.17;;;0.70;99.90;;;;;;4824613;29;20042;-87
2023/01/29 08:35:26;;;;;;;5.47;2.10;;;0.60;99.90;;;;;;4826575;29;20030;-87
2023/01/29 08:37:59;;;;;;;5.87;2.53;;;-0.80;99.90;;;;;;4826148;29;20488;-87
2023/01/29 08:40:27;;;;;;;5.67;2.00;;;-0.20;99.90;;;;;;4827096;29;20110;-87
2023/01/29 08:43:05;;;;;;;6.53;2.50;;;-0.10;99.90;;;;;;4822751;29;21236;-87
2023/01/29 08:45:39;;;;;;;8.80;1.90;;;0.00;99.90;;;;;;4821890;29;20026;-87
2023/01/29 08:48:05;;;;;;;7.23;1.60;;;0.10;99.90;;;;;;4825117;29;20090;-87
2023/01/29 08:50:33;;;;;;;4.77;1.80;;;-0.10;99.90;;;;;;4826054;29;20026;-86
2023/01/29 08:53:03;;;;;;;6.43;2.10;;;1.10;99.90;;;;;;4821336;29;20061;-87
2023/01/29 08:55:31;;;;;;;8.17;2.40;;;-0.10;99.90;;;;;;4823947;29;20035;-88
2023/01/29 08:57:56;;;;;;;6.33;2.20;;;0.00;99.90;;;;;;4835274;29;20053;-87
2023/01/29 09:00:23;;;;;;;7.07;2.80;;;0.00;99.90;;;;;;4823577;29;20054;-87
2023/01/29 09:02:49;;;;;;;6.20;2.20;;;0.00;99.90;;;;;;4824901;29;20098;-87
2023/01/29 09:05:15;;;;;;;5.20;2.13;;;-0.50;99.90;;;;;;4828298;29;20046;-86
2023/01/29 09:07:41;;;;;;;5.40;2.03;;;0.10;99.90;;;;;;4829305;29;20406;-87
2023/01/29 09:10:09;;;;;;;6.43;2.47;;;0.10;99.90;;;;;;4824902;29;20070;-87
2023/01/29 09:12:35;;;;;;;5.63;2.20;;;0.10;99.90;;;;;;4824960;29;20046;-87
2023/01/29 09:15:04;;;;;;;5.07;2.27;;;1.00;99.90;;;;;;4832304;29;20495;-88
2023/01/29 09:17:29;;;;;;;5.30;2.27;;;0.90;99.90;;;;;;4826436;29;20038;-88
2023/01/29 09:19:58;;;;;;;5.67;2.63;;;0.30;99.90;;;;;;4830223;29;20038;-88
2023/01/29 09:22:23;;;;;;;5.93;2.47;;;-0.30;99.90;;;;;;4833347;29;20081;-88
2023/01/29 09:24:49;;;;;;;5.53;2.00;;;0.90;99.90;;;;;;4834601;29;20180;-88
2023/01/29 09:27:15;;;;;;;5.40;2.00;;;0.10;99.90;;;;;;4829619;29;20038;-87
2023/01/29 09:29:41;;;;;;;5.67;2.40;;;0.20;99.90;;;;;;4821579;29;20568;-88
2023/01/29 09:32:07;;;;;;;6.10;2.70;;;0.30;99.90;;;;;;4825399;29;20059;-88
2023/01/29 09:34:35;;;;;;;5.97;2.13;;;1.10;99.90;;;;;;4825371;29;20094;-87
2023/01/29 09:37:00;;;;;;;8.23;2.23;;;0.40;99.90;;;;;;4826400;29;20453;-88
2023/01/29 09:39:26;;;;;;;7.67;2.90;;;0.30;99.90;;;;;;4827189;29;20058;-88
2023/01/29 09:42:23;;;;;;;5.50;2.00;;;1.00;99.90;;;;;;4828440;29;20034;-87
2023/01/29 09:44:51;;;;;;;5.20;2.00;;;0.40;99.90;;;;;;4830227;29;20030;-88
2023/01/29 09:47:24;;;;;;;11.07;3.03;;;0.40;99.90;;;;;;4834613;29;20042;-88
2023/01/29 09:50:10;;;;;;;16.03;4.60;;;0.40;99.90;;;;;;4827161;29;20035;-87
2023/01/29 09:53:06;;;;;;;9.17;2.90;;;0.40;99.90;;;;;;4833707;29;20079;-87
2023/01/29 09:56:02;;;;;;;6.20;2.70;;;0.60;99.90;;;;;;4833025;29;20027;-88
2023/01/29 09:58:38;;;;;;;6.17;2.50;;;0.50;99.90;;;;;;4830221;29;20067;-88
2023/01/29 10:01:09;;;;;;;6.93;2.17;;;0.50;99.90;;;;;;4829803;29;20058;-87
2023/01/29 10:03:53;;;;;;;4.55;1.30;;;0.60;99.90;;;;;;4826285;29;20117;-88
2023/01/29 10:06:58;;;;;;;4.10;1.87;;;0.30;99.90;;;;;;4831220;29;20037;-88
2023/01/29 10:09:50;;;;;;;5.33;2.23;;;0.60;99.90;;;;;;4839889;29;20031;-87
2023/01/29 10:12:32;;;;;;;2.58;1.20;;;0.50;99.90;;;;;;4828184;29;20045;-89
2023/01/29 10:15:26;;;;;;;3.33;1.38;;;0.40;99.90;;;;;;4830053;29;20027;-89
2023/01/29 10:18:43;;;;;;;4.67;1.97;;;0.70;99.90;;;;;;4814851;29;20035;-87
2023/01/29 10:21:23;;;;;;;10.83;2.33;;;0.80;99.90;;;;;;4813665;29;20038;-88
2023/01/29 10:24:12;;;;;;;5.27;1.87;;;0.80;99.90;;;;;;4824793;29;20022;-87
2023/01/29 10:26:39;;;;;;;5.83;2.27;;;0.80;99.90;;;;;;4820117;29;20523;-87
2023/01/29 10:29:11;;;;;;;6.03;2.20;;;1.00;99.90;;;;;;4822757;29;20110;-87
2023/01/29 10:31:43;;;;;;;7.93;2.10;;;1.60;99.90;;;;;;4821336;29;20027;-87
2023/01/29 10:34:32;;;;;;;6.15;2.92;;;2.20;99.90;;;;;;4825798;29;20022;-87
2023/01/29 10:37:13;;;;;;;6.53;2.30;;;1.20;99.90;;;;;;4825224;29;20034;-88
2023/01/29 10:39:39;;;;;;;5.47;2.00;;;1.30;99.90;;;;;;4842519;29;20037;-86
2023/01/29 10:42:24;;;;;;;6.00;2.10;;;2.40;99.90;;;;;;4828314;29;20071;-88
2023/01/29 10:45:30;;;;;;;6.13;2.07;;;1.30;99.90;;;;;;4830867;29;20034;-88
2023/01/29 10:47:56;;;;;;;5.33;2.00;;;1.40;99.90;;;;;;4826000;29;20121;-87
2023/01/29 10:50:47;;;;;;;4.23;1.57;;;1.30;99.90;;;;;;4826818;29;20059;-87
2023/01/29 10:53:40;;;;;;;7.03;2.13;;;1.40;99.90;;;;;;4829870;29;20034;-87
2023/01/29 10:56:20;;;;;;;7.47;2.70;;;1.40;99.90;;;;;;4821456;29;20038;-88
2023/01/29 10:58:51;;;;;;;4.30;2.13;;;1.50;99.90;;;;;;4824936;29;20031;-88
2023/01/29 11:01:16;;;;;;;4.97;2.27;;;1.50;99.90;;;;;;4820668;29;20041;-87
2023/01/29 11:03:43;;;;;;;4.57;1.87;;;1.40;99.90;;;;;;4820340;29;20030;-88
2023/01/29 11:06:53;;;;;;;5.23;2.10;;;2.60;99.90;;;;;;4816675;29;20061;-87
2023/01/29 11:09:33;;;;;;;5.83;2.13;;;0.70;99.90;;;;;;4811077;29;20034;-87
2023/01/29 11:12:04;;;;;;;5.63;2.17;;;1.50;99.90;;;;;;4820198;29;20053;-88
2023/01/29 11:14:54;;;;;;;5.13;2.50;;;1.50;99.90;;;;;;4824207;29;20041;-88
2023/01/29 11:17:26;;;;;;;6.07;1.80;;;1.60;99.90;;;;;;4823336;29;20041;-88
2023/01/29 11:19:54;;;;;;;6.90;2.20;;;1.80;99.90;;;;;;4822983;29;20425;-88
2023/01/29 11:22:29;;;;;;;6.10;2.23;;;1.60;99.90;;;;;;4828793;29;20449;-88
2023/01/29 11:25:18;;;;;;;6.80;2.10;;;2.10;99.90;;;;;;4819952;29;20039;-86
2023/01/29 11:27:49;;;;;;;6.63;1.93;;;1.40;99.90;;;;;;4824169;29;20102;-86
2023/01/29 11:30:32;;;;;;;6.23;2.37;;;3.10;99.90;;;;;;4818062;29;20034;-88
2023/01/29 11:33:07;;;;;;;5.27;2.47;;;1.90;99.90;;;;;;4832785;29;20035;-87
2023/01/29 11:35:35;;;;;;;6.83;3.00;;;1.30;99.90;;;;;;4819440;29;20041;-88
2023/01/29 11:38:18;;;;;;;5.90;2.57;;;1.50;99.90;;;;;;4820284;29;20031;-87
2023/01/29 11:40:46;;;;;;;5.57;2.20;;;2.40;99.90;;;;;;4822716;29;20180;-88
2023/01/29 11:43:30;;;;;;;5.33;2.03;;;1.50;99.90;;;;;;4823712;29;20030;-88
2023/01/29 11:46:15;;;;;;;5.43;1.90;;;1.50;99.90;;;;;;4823083;29;20057;-87
2023/01/29 11:48:53;;;;;;;9.67;2.20;;;1.50;99.90;;;;;;4827776;29;20030;-88
2023/01/29 11:51:40;;;;;;;6.47;2.23;;;1.50;99.90;;;;;;4823132;29;20034;-87
2023/01/29 11:54:19;;;;;;;6.40;2.57;;;1.10;99.90;;;;;;4826157;29;20100;-88
2023/01/29 11:56:46;;;;;;;8.03;2.40;;;1.80;99.90;;;;;;4824579;29;20031;-87
2023/01/29 11:59:57;;;;;;;8.30;1.80;;;3.00;99.90;;;;;;4831340;29;20090;-88
2023/01/29 12:02:30;;;;;;;6.90;2.07;;;1.60;99.90;;;;;;4830948;29;20242;-88
2023/01/29 12:05:00;;;;;;;5.67;2.50;;;2.40;99.90;;;;;;4842928;29;20035;-88
2023/01/29 12:07:33;;;;;;;7.20;2.83;;;1.90;99.90;;;;;;4833600;29;20022;-88
2023/01/29 12:10:28;;;;;;;6.20;2.30;;;2.10;99.90;;;;;;4837308;29;20026;-87
2023/01/29 12:13:03;;;;;;;6.10;2.63;;;2.10;99.90;;;;;;4844008;29;20121;-87
2023/01/29 12:15:29;;;;;;;4.87;2.13;;;2.20;99.90;;;;;;4850553;29;20026;-87
2023/01/29 12:18:18;;;;;;;5.63;1.93;;;2.10;99.90;;;;;;4828885;29;20037;-88
2023/01/29 12:20:57;;;;;;;6.23;2.33;;;2.10;99.90;;;;;;4831948;29;20440;-87
2023/01/29 12:23:49;;;;;;;5.37;2.07;;;2.20;99.90;;;;;;4834967;29;20171;-88
2023/01/29 12:26:26;;;;;;;7.00;2.53;;;2.20;99.90;;;;;;4833040;29;20098;-87
2023/01/29 12:29:23;;;;;;;6.70;2.40;;;2.30;99.90;;;;;;4831808;29;20055;-87
2023/01/29 12:32:01;;;;;;;6.87;2.30;;;2.10;99.90;;;;;;4827316;29;20038;-87
2023/01/29 12:34:34;;;;;;;5.50;2.30;;;2.20;99.90;;;;;;4828861;29;20037;-87
2023/01/29 12:37:23;;;;;;;4.13;2.03;;;3.40;99.90;;;;;;4834159;29;20022;-88
2023/01/29 12:39:51;;;;;;;6.13;2.43;;;2.00;99.90;;;;;;4833845;29;20037;-87
2023/01/29 12:42:24;;;;;;;5.77;2.53;;;1.00;99.90;;;;;;4835079;29;20034;-87
2023/01/29 12:45:09;;;;;;;6.43;2.13;;;2.40;99.90;;;;;;4835690;29;20073;-88
2023/01/29 12:47:42;;;;;;;5.33;1.83;;;2.00;99.90;;;;;;4841887;29;20061;-88
2023/01/29 12:50:27;;;;;;;6.73;2.07;;;2.10;99.90;;;;;;4834339;29;20035;-87
2023/01/29 12:53:09;;;;;;;4.27;1.77;;;2.10;99.90;;;;;;4835834;29;20042;-86
2023/01/29 12:55:48;;;;;;;3.80;1.90;;;2.10;99.90;;;;;;4831893;29;20492;-88
2023/01/29 12:58:29;;;;;;;6.47;2.07;;;2.10;99.90;;;;;;4832666;29;20411;-87
2023/01/29 13:01:12;;;;;;;5.90;2.10;;;2.10;99.90;;;;;;4836447;29;20133;-88
2023/01/29 13:03:53;;;;;;;5.80;1.97;;;2.20;99.90;;;;;;4837750;29;20034;-89
2023/01/29 13:06:29;;;;;;;5.13;2.13;;;2.20;99.90;;;;;;4832330;29;20449;-88
2023/01/29 13:09:09;;;;;;;5.63;2.00;;;2.20;99.90;;;;;;4832392;29;20038;-88
2023/01/29 13:12:01;;;;;;;4.40;1.90;;;2.50;99.90;;;;;;4832613;29;20067;-87
2023/01/29 13:14:53;;;;;;;5.40;1.23;;;2.30;99.90;;;;;;4846373;29;20038;-87
2023/01/29 13:18:12;;;;;;;4.80;1.85;;;2.30;99.90;;;;;;4834021;29;20098;-88
2023/01/29 13:20:39;;;;;;;4.20;1.70;;;2.50;99.90;;;;;;4833958;29;20030;-88
2023/01/29 13:27:51;;;;;;;3.37;1.50;;;2.20;99.90;;;;;;4821426;29;20074;-89
2023/01/29 13:31:05;;;;;;;4.50;1.60;;;2.30;99.90;;;;;;4784551;30;20054;-88
2023/01/29 13:34:51;;;;;;;6.47;1.57;;;2.30;99.90;;;;;;4794522;29;20047;-89
2023/01/29 13:37:47;;;;;;;4.83;1.77;;;2.50;99.90;;;;;;4744325;29;20040;-90
2023/01/29 13:40:41;;;;;;;5.93;1.97;;;2.50;99.90;;;;;;4838987;29;20030;-90
2023/01/29 13:43:59;;;;;;;5.07;1.60;;;2.60;99.90;;;;;;4830320;29;20072;-88
2023/01/29 13:46:38;;;;;;;5.40;1.37;;;2.10;99.90;;;;;;4825552;29;20643;-87
2023/01/29 13:49:45;;;;;;;4.17;1.63;;;3.50;99.90;;;;;;4827768;29;20026;-87
2023/01/29 13:52:33;;;;;;;5.03;1.47;;;2.60;99.90;;;;;;4829486;29;20044;-88
2023/01/29 13:55:17;;;;;;;6.87;2.23;;;2.80;99.90;;;;;;4834591;29;20041;-87
2023/01/29 13:57:55;;;;;;;5.47;1.97;;;3.30;99.90;;;;;;4843213;29;20054;-90
2023/01/29 14:00:38;;;;;;;4.87;1.63;;;3.00;99.90;;;;;;4836751;29;20067;-90
2023/01/29 14:03:13;;;;;;;5.10;1.90;;;3.10;99.90;;;;;;4835469;29;20051;-89
2023/01/29 14:05:57;;;;;;;8.20;2.50;;;2.90;99.90;;;;;;4838125;29;20010;-90
2023/01/29 14:08:42;;;;;;;4.77;1.83;;;3.80;99.90;;;;;;4835689;29;20034;-88
2023/01/29 14:14:54;;;;;;;6.10;2.17;;;3.50;99.90;;;;;;4838202;29;20060;-90
2023/01/29 14:17:20;;;;;;;5.93;2.10;;;3.00;99.90;;;;;;4836117;29;20031;-89
2023/01/29 14:20:15;;;;;;;3.90;1.60;;;3.90;99.90;;;;;;4833504;29;20087;-88
2023/01/29 14:22:42;;;;;;;5.97;1.80;;;2.80;99.90;;;;;;4840698;29;20031;-89
2023/01/29 14:25:16;;;;;;;5.40;2.00;;;2.70;99.90;;;;;;4826729;29;20022;-88
2023/01/29 14:27:47;;;;;;;4.20;1.50;;;2.60;99.90;;;;;;4829055;29;20040;-88